Monkey Island, Oklahoma
Current Conditions -  °F | °C
As of 10:15 AM on Friday 21 Nov 2014 (Local Time) from KGMJ Reporting Station
Overcast Overcast  
Wind Chill: 54°   Ceiling: 1600
Heat Index: 54°   Visibility: 10mi
Dew Point: 45°   Wind: 6mph
Humidity: 72%   Direction: 120°ESE
Pressure: 30.19"   Gusts: NA
Location:  36.651°N, 94.9303°W
Report Text: KGMJ 211615Z AUTO 12005KT 10SM BKN016 OVC022 12/07 A3019 RMK AO2
Loading
Personal Weather Stations






























Interactive Weather Map New forecast layout! Learn more

10-Day Weather Forecast

Advertisements
Track Severe Weather on mobile